Time;durP1;ratioP1;P1;durP2;ratioP2;P2;SDS_P1;SDS_P2;PMS_P1;PMS_P2;Temp;Humidity;BMP_temperature;BMP_pressure;BME280_temperature;BME280_humidity;BME280_pressure;Samples;Min_cycle;Max_cycle;Signal;HPM_P1;HPM_P2
2021/05/20 00:02:28;;;;;;;0.52;0.47;;;13.30;99.90;;;;;;6163065;23;20005;-94
2021/05/20 00:05:16;;;;;;;0.77;0.77;;;13.30;99.90;;;;;;6162566;23;20013;-94
2021/05/20 00:07:44;;;;;;;0.50;0.50;;;13.40;99.90;;;;;;6174594;23;20013;-92
2021/05/20 00:10:12;;;;;;;0.50;0.50;;;13.40;99.90;;;;;;6161794;23;20088;-90
2021/05/20 00:13:03;;;;;;;0.70;0.70;;;13.40;99.90;;;;;;6163526;23;20044;-94
2021/05/20 00:15:29;;;;;;;1.00;0.60;;;13.50;99.90;;;;;;6161034;23;20017;-88
2021/05/20 00:17:58;;;;;;;0.60;0.60;;;13.40;99.90;;;;;;6199332;23;20057;-92
2021/05/20 00:20:26;;;;;;;0.75;0.75;;;13.50;99.90;;;;;;6174398;23;20052;-88
2021/05/20 00:22:52;;;;;;;0.63;0.63;;;13.50;99.90;;;;;;6168067;23;20013;-91
2021/05/20 00:25:17;;;;;;;0.88;0.88;;;13.40;99.90;;;;;;6161894;23;20101;-90
2021/05/20 00:27:43;;;;;;;1.98;0.90;;;13.50;99.90;;;;;;6163146;23;20125;-87
2021/05/20 00:30:10;;;;;;;1.50;1.40;;;13.50;99.90;;;;;;6162592;23;20048;-88
2021/05/20 00:32:36;;;;;;;1.33;1.23;;;13.40;99.90;;;;;;6163957;23;20116;-90
2021/05/20 00:35:03;;;;;;;1.50;1.40;;;13.40;99.90;;;;;;6163366;23;20096;-93
2021/05/20 00:37:29;;;;;;;1.00;1.00;;;13.40;99.90;;;;;;6161458;23;20020;-89
2021/05/20 00:39:55;;;;;;;1.40;1.30;;;13.40;99.90;;;;;;6164730;23;20005;-89
2021/05/20 00:42:21;;;;;;;1.40;1.30;;;13.40;99.90;;;;;;6162523;23;20044;-90
2021/05/20 00:44:54;;;;;;;1.30;1.20;;;13.40;99.90;;;;;;6167432;23;20469;-91
2021/05/20 00:47:32;;;;;;;2.83;1.40;;;13.40;99.90;;;;;;6161932;23;20042;-86
2021/05/20 00:49:59;;;;;;;3.03;1.27;;;13.40;99.90;;;;;;6162377;23;20017;-87
2021/05/20 00:52:25;;;;;;;1.38;1.27;;;13.40;99.90;;;;;;6163481;23;20005;-89
2021/05/20 00:54:53;;;;;;;1.38;1.27;;;13.40;99.90;;;;;;6162257;23;20023;-87
2021/05/20 00:57:20;;;;;;;1.52;1.30;;;13.40;99.90;;;;;;6160452;23;20005;-88
2021/05/20 00:59:47;;;;;;;2.20;1.20;;;13.40;99.90;;;;;;6187456;23;20435;-86
2021/05/20 01:02:13;;;;;;;1.40;1.30;;;13.40;99.90;;;;;;6161506;23;20033;-89
2021/05/20 01:04:39;;;;;;;2.10;1.50;;;13.30;99.90;;;;;;6162753;23;20064;-88
2021/05/20 01:07:05;;;;;;;1.10;1.10;;;13.30;99.90;;;;;;6165613;23;20001;-88
2021/05/20 01:09:35;;;;;;;2.08;1.20;;;13.30;99.90;;;;;;6168961;23;19997;-87
2021/05/20 01:12:02;;;;;;;1.38;1.25;;;13.30;99.90;;;;;;6169235;23;20004;-91
2021/05/20 01:14:28;;;;;;;1.40;1.30;;;13.30;99.90;;;;;;6167304;23;20094;-89
2021/05/20 01:16:54;;;;;;;1.35;1.17;;;13.30;99.90;;;;;;6195604;23;20001;-87
2021/05/20 01:19:19;;;;;;;1.00;1.00;;;13.30;99.90;;;;;;6166268;23;20016;-90
2021/05/20 01:21:46;;;;;;;1.60;1.50;;;13.30;99.90;;;;;;6163099;23;20005;-89
2021/05/20 01:24:12;;;;;;;1.58;1.48;;;13.20;99.90;;;;;;6165980;23;20015;-89
2021/05/20 01:26:39;;;;;;;2.90;1.50;;;13.20;99.90;;;;;;6167552;23;20016;-93
2021/05/20 01:29:11;;;;;;;1.75;1.30;;;13.20;99.90;;;;;;6163091;23;20044;-88
2021/05/20 01:31:37;;;;;;;1.92;1.48;;;13.10;99.90;;;;;;6163826;23;20012;-89
2021/05/20 01:34:03;;;;;;;3.70;1.40;;;13.10;99.90;;;;;;6175607;23;20028;-89
2021/05/20 01:36:30;;;;;;;1.50;1.40;;;13.10;99.90;;;;;;6176612;23;20015;-89
2021/05/20 01:39:03;;;;;;;1.73;1.50;;;13.00;99.90;;;;;;6201536;23;20001;-87
2021/05/20 01:41:29;;;;;;;1.70;1.55;;;13.00;99.90;;;;;;6176636;23;20005;-89
2021/05/20 01:43:55;;;;;;;3.38;1.70;;;12.90;99.90;;;;;;6164665;23;20012;-90
2021/05/20 01:46:22;;;;;;;1.40;1.30;;;12.90;99.90;;;;;;6165505;23;20005;-90
2021/05/20 01:48:53;;;;;;;1.45;1.35;;;12.90;99.90;;;;;;6163689;23;20013;-87
2021/05/20 01:51:21;;;;;;;1.50;1.40;;;12.90;99.90;;;;;;6165467;23;20382;-87
2021/05/20 01:53:49;;;;;;;1.90;1.50;;;12.90;99.90;;;;;;6166723;23;20013;-89
2021/05/20 01:56:17;;;;;;;1.52;1.38;;;12.90;99.90;;;;;;6177693;23;20025;-91
2021/05/20 01:58:43;;;;;;;1.95;1.38;;;12.90;99.90;;;;;;6175198;23;20384;-92
2021/05/20 02:01:09;;;;;;;1.85;1.42;;;12.90;99.90;;;;;;6164887;23;20036;-90
2021/05/20 02:03:35;;;;;;;2.00;1.63;;;12.90;99.90;;;;;;6163650;23;20001;-88
2021/05/20 02:06:02;;;;;;;1.70;1.60;;;12.90;99.90;;;;;;6163413;23;20103;-90
2021/05/20 02:08:36;;;;;;;1.60;1.50;;;12.90;99.90;;;;;;6163516;23;20083;-88
2021/05/20 02:11:03;;;;;;;2.05;1.42;;;12.90;99.90;;;;;;6165943;23;20016;-90
2021/05/20 02:13:29;;;;;;;1.20;1.10;;;12.90;99.90;;;;;;6170925;23;20009;-89
2021/05/20 02:15:55;;;;;;;1.67;1.58;;;12.90;99.90;;;;;;6167260;23;20005;-89
2021/05/20 02:18:21;;;;;;;1.83;1.73;;;12.90;99.90;;;;;;6167150;23;20005;-90
2021/05/20 02:20:47;;;;;;;2.83;1.70;;;12.90;99.90;;;;;;6172318;23;20013;-89
2021/05/20 02:23:14;;;;;;;1.63;1.52;;;12.90;99.90;;;;;;6166436;23;20088;-88
2021/05/20 02:25:40;;;;;;;2.17;1.48;;;12.90;99.90;;;;;;6163365;23;20060;-90
2021/05/20 02:28:06;;;;;;;1.60;1.50;;;12.90;99.90;;;;;;6164156;23;20067;-88
2021/05/20 02:30:32;;;;;;;2.83;1.75;;;12.90;99.90;;;;;;6164459;23;20367;-88
2021/05/20 02:32:58;;;;;;;2.35;1.65;;;12.90;99.90;;;;;;6166486;23;20005;-89
2021/05/20 02:35:25;;;;;;;4.13;1.70;;;12.90;99.90;;;;;;6153936;23;20320;-86
2021/05/20 02:37:51;;;;;;;1.67;1.58;;;12.90;99.90;;;;;;6162260;23;20001;-91
2021/05/20 02:40:17;;;;;;;2.45;1.48;;;12.90;99.90;;;;;;6191911;23;19993;-87
2021/05/20 02:42:44;;;;;;;1.73;1.45;;;12.90;99.90;;;;;;6165511;23;20009;-87
2021/05/20 02:45:14;;;;;;;3.80;1.90;;;12.90;99.90;;;;;;6173548;23;20001;-89
2021/05/20 02:47:39;;;;;;;3.83;1.95;;;12.90;99.90;;;;;;6168052;23;20036;-89
2021/05/20 02:50:06;;;;;;;2.20;1.80;;;12.90;99.90;;;;;;6202801;23;19993;-89
2021/05/20 02:52:32;;;;;;;1.83;1.45;;;12.90;99.90;;;;;;6173039;23;19997;-88
2021/05/20 02:54:58;;;;;;;1.70;1.60;;;12.90;99.90;;;;;;6162735;23;20017;-87
2021/05/20 02:57:24;;;;;;;1.55;1.38;;;13.00;99.90;;;;;;6163377;23;20036;-88
2021/05/20 02:59:50;;;;;;;1.73;1.50;;;13.00;99.90;;;;;;6164989;23;20001;-89
2021/05/20 03:02:16;;;;;;;1.65;1.38;;;13.00;99.90;;;;;;6166878;23;20028;-90
2021/05/20 03:04:42;;;;;;;2.90;1.75;;;13.00;99.90;;;;;;6174718;23;19996;-93
2021/05/20 03:07:08;;;;;;;1.85;1.60;;;13.10;99.90;;;;;;6178927;23;20352;-88
2021/05/20 03:09:34;;;;;;;2.25;1.77;;;13.10;99.90;;;;;;6167887;23;20005;-89
2021/05/20 03:12:01;;;;;;;1.80;1.70;;;13.10;99.90;;;;;;6163957;23;20028;-88
2021/05/20 03:14:28;;;;;;;1.63;1.50;;;13.10;99.90;;;;;;6163344;23;20023;-89
2021/05/20 03:16:54;;;;;;;3.88;1.67;;;13.00;99.90;;;;;;6164213;23;20001;-87
2021/05/20 03:19:20;;;;;;;1.70;1.60;;;13.00;99.90;;;;;;6167049;23;20017;-89
2021/05/20 03:21:47;;;;;;;5.93;1.88;;;13.00;99.90;;;;;;6190634;23;20482;-88
2021/05/20 03:24:13;;;;;;;2.00;1.80;;;13.00;99.90;;;;;;6167466;23;20009;-89
2021/05/20 03:26:38;;;;;;;2.30;2.10;;;13.00;99.90;;;;;;6170275;23;20012;-88
2021/05/20 03:29:04;;;;;;;2.40;1.92;;;13.00;99.90;;;;;;6164630;23;20005;-87
2021/05/20 03:31:31;;;;;;;2.20;1.90;;;13.10;99.90;;;;;;6162010;23;20013;-87
2021/05/20 03:34:08;;;;;;;3.00;2.00;;;13.10;99.90;;;;;;6192697;23;20013;-93
2021/05/20 03:36:34;;;;;;;3.40;1.90;;;13.10;99.90;;;;;;6164449;23;20012;-91
2021/05/20 03:38:59;;;;;;;2.58;2.05;;;13.10;99.90;;;;;;6162765;23;20013;-89
2021/05/20 03:41:25;;;;;;;5.03;2.30;;;13.10;99.90;;;;;;6163551;23;20089;-90
2021/05/20 03:43:54;;;;;;;2.38;2.10;;;13.10;99.90;;;;;;6166934;23;20064;-91
2021/05/20 03:46:20;;;;;;;2.58;1.88;;;13.20;99.90;;;;;;6166403;23;20032;-92
2021/05/20 03:48:46;;;;;;;3.65;1.88;;;13.20;99.90;;;;;;6163187;23;20017;-88
2021/05/20 03:51:12;;;;;;;3.70;1.90;;;13.30;99.90;;;;;;6189714;23;20008;-89
2021/05/20 03:53:38;;;;;;;1.90;1.77;;;13.30;99.90;;;;;;6170617;23;20021;-88
2021/05/20 03:56:04;;;;;;;2.20;1.67;;;13.30;99.90;;;;;;6163729;23;20453;-89
2021/05/20 03:58:30;;;;;;;4.20;1.98;;;13.40;99.90;;;;;;6162702;23;20335;-87
2021/05/20 04:00:56;;;;;;;2.47;1.80;;;13.40;99.90;;;;;;6169372;23;20005;-88
2021/05/20 04:03:26;;;;;;;2.38;1.90;;;13.40;99.90;;;;;;6165905;23;20009;-88
2021/05/20 04:05:56;;;;;;;3.05;1.83;;;13.40;99.90;;;;;;6189852;23;20084;-88
2021/05/20 04:08:22;;;;;;;2.28;1.50;;;13.40;99.90;;;;;;6165903;23;20013;-90
2021/05/20 04:10:49;;;;;;;2.45;1.75;;;13.40;99.90;;;;;;6171680;23;20009;-89
2021/05/20 04:13:30;;;;;;;1.98;1.80;;;13.40;99.90;;;;;;6183138;23;20009;-87
2021/05/20 04:15:56;;;;;;;2.28;1.60;;;13.50;99.90;;;;;;6181876;23;19993;-89
2021/05/20 04:18:22;;;;;;;2.38;1.55;;;13.50;99.90;;;;;;6180437;23;20013;-87
2021/05/20 04:20:49;;;;;;;3.08;1.90;;;13.50;99.90;;;;;;6167870;23;20009;-89
2021/05/20 04:23:15;;;;;;;3.45;1.88;;;13.50;99.90;;;;;;6189106;23;20008;-87
2021/05/20 04:25:41;;;;;;;2.63;1.80;;;13.50;99.90;;;;;;6163535;23;20032;-89
2021/05/20 04:28:07;;;;;;;2.42;1.73;;;13.60;99.90;;;;;;6166027;23;20339;-89
2021/05/20 04:30:32;;;;;;;2.75;1.90;;;13.50;99.90;;;;;;6161497;23;20025;-87
2021/05/20 04:32:59;;;;;;;2.67;1.73;;;13.40;99.90;;;;;;6162646;23;20012;-89
2021/05/20 04:35:25;;;;;;;2.00;1.77;;;13.40;99.90;;;;;;6162016;23;20045;-91
2021/05/20 04:37:50;;;;;;;1.75;1.65;;;13.40;99.90;;;;;;6165454;23;20009;-88
2021/05/20 04:40:16;;;;;;;3.40;1.50;;;13.50;99.90;;;;;;6166932;23;20009;-89
2021/05/20 04:42:42;;;;;;;1.80;1.65;;;13.60;99.90;;;;;;6163527;23;20339;-89
2021/05/20 04:45:09;;;;;;;1.88;1.75;;;13.70;99.90;;;;;;6165902;23;20072;-88
2021/05/20 04:47:35;;;;;;;2.00;1.77;;;13.80;99.90;;;;;;6176493;23;20041;-88
2021/05/20 04:50:01;;;;;;;1.70;1.60;;;13.90;99.90;;;;;;6183232;23;20001;-88
2021/05/20 04:52:26;;;;;;;2.00;1.80;;;14.00;99.90;;;;;;6179179;23;20040;-87
2021/05/20 04:54:52;;;;;;;2.00;1.50;;;14.10;99.90;;;;;;6167745;23;20140;-88
2021/05/20 04:57:18;;;;;;;2.03;1.60;;;14.10;99.90;;;;;;6161156;23;20048;-90
2021/05/20 04:59:43;;;;;;;2.80;1.83;;;14.20;99.90;;;;;;6161015;23;20427;-87
2021/05/20 05:02:12;;;;;;;3.15;1.60;;;14.20;99.90;;;;;;6163177;23;20001;-89
2021/05/20 05:04:41;;;;;;;2.10;1.80;;;14.20;99.90;;;;;;6161813;23;20450;-87
2021/05/20 05:07:07;;;;;;;2.08;1.80;;;14.10;99.90;;;;;;6162624;23;20435;-89
2021/05/20 05:09:36;;;;;;;2.42;1.60;;;14.10;99.90;;;;;;6163307;23;19997;-88
2021/05/20 05:12:06;;;;;;;1.50;1.40;;;14.10;99.90;;;;;;6167110;23;20009;-87
2021/05/20 05:14:32;;;;;;;3.90;1.60;;;14.10;99.90;;;;;;6177740;23;20081;-88
2021/05/20 05:17:00;;;;;;;4.15;1.67;;;14.00;99.90;;;;;;6165032;23;20335;-87
2021/05/20 05:19:29;;;;;;;2.65;1.73;;;14.00;99.90;;;;;;6153875;23;20019;-85
2021/05/20 05:22:51;;;;;;;1.60;1.50;;;14.00;99.90;;;;;;6167206;23;20075;-91
2021/05/20 05:25:21;;;;;;;3.05;1.45;;;14.00;99.90;;;;;;6157558;23;20029;-89
2021/05/20 05:27:57;;;;;;;1.65;1.50;;;14.00;99.90;;;;;;6164412;23;20077;-87
2021/05/20 05:30:40;;;;;;;3.13;1.60;;;14.00;99.90;;;;;;6163177;23;20383;-87
2021/05/20 05:33:21;;;;;;;1.63;1.50;;;14.00;99.90;;;;;;6162346;23;20049;-90
2021/05/20 05:39:13;;;;;;;2.17;1.60;;;13.90;99.90;;;;;;6172829;23;20025;-88
2021/05/20 05:41:52;;;;;;;1.63;1.52;;;13.90;99.90;;;;;;6160929;23;20001;-87
2021/05/20 05:44:18;;;;;;;3.92;1.38;;;13.90;99.80;;;;;;6162467;23;20013;-87
2021/05/20 05:46:49;;;;;;;2.85;2.00;;;14.00;99.90;;;;;;6161654;23;20061;-87
2021/05/20 05:49:35;;;;;;;2.42;1.42;;;14.00;99.20;;;;;;6163964;23;20016;-88
2021/05/20 05:52:05;;;;;;;2.97;1.38;;;14.10;99.60;;;;;;6160902;23;20001;-86
2021/05/20 05:54:31;;;;;;;1.70;1.33;;;14.10;99.30;;;;;;6163828;23;20024;-89
2021/05/20 05:56:59;;;;;;;4.00;1.65;;;14.20;99.70;;;;;;6190295;23;20072;-89
2021/05/20 05:59:57;;;;;;;1.63;1.52;;;14.40;99.40;;;;;;6166868;23;20040;-87
2021/05/20 06:02:24;;;;;;;3.85;1.48;;;14.50;98.80;;;;;;6168478;23;20017;-90
2021/05/20 06:04:52;;;;;;;1.58;1.40;;;14.70;98.30;;;;;;6168987;23;19999;-90
2021/05/20 06:07:19;;;;;;;2.85;1.50;;;14.90;98.30;;;;;;6166242;23;20005;-89
2021/05/20 06:09:48;;;;;;;2.10;1.20;;;15.10;98.30;;;;;;6166752;23;20001;-87
2021/05/20 06:12:21;;;;;;;1.98;1.38;;;15.30;97.50;;;;;;6168848;23;20015;-89
2021/05/20 06:15:20;;;;;;;3.85;1.80;;;15.60;97.30;;;;;;6166449;23;20021;-90
2021/05/20 06:18:24;;;;;;;;;;;;;;;;;;;;;
2021/05/20 06:24:53;;;;;;;2.80;1.60;;;16.30;94.00;;;;;;6064233;23;20021;-89
2021/05/20 06:27:30;;;;;;;1.40;1.30;;;16.80;93.70;;;;;;6161277;23;20219;-86
2021/05/20 06:30:17;;;;;;;1.42;1.27;;;17.30;93.10;;;;;;6169619;23;20001;-88
2021/05/20 06:32:52;;;;;;;2.13;1.30;;;17.90;92.20;;;;;;6174702;23;20103;-88
2021/05/20 06:35:18;;;;;;;1.30;1.17;;;18.50;90.40;;;;;;6174042;23;20015;-88
2021/05/20 06:38:04;;;;;;;1.30;1.17;;;18.90;87.60;;;;;;6173452;23;20079;-91
2021/05/20 06:41:04;;;;;;;1.85;1.23;;;19.30;85.70;;;;;;6198798;23;19998;-87
2021/05/20 06:43:34;;;;;;;2.00;1.13;;;19.40;79.90;;;;;;6173056;23;20482;-90
2021/05/20 06:46:34;;;;;;;2.65;0.90;;;19.70;76.00;;;;;;6168461;23;20013;-88
2021/05/20 06:49:09;;;;;;;2.63;1.05;;;20.30;76.40;;;;;;6139806;23;20021;-87
2021/05/20 06:51:35;;;;;;;1.02;0.93;;;20.70;72.40;;;;;;6136730;23;20002;-87
2021/05/20 06:57:22;;;;;;;3.72;1.00;;;21.50;72.50;;;;;;6134663;23;20080;-90
2021/05/20 07:00:03;;;;;;;2.08;0.70;;;22.10;70.20;;;;;;6136426;23;20020;-88
2021/05/20 07:02:58;;;;;;;3.15;1.10;;;22.50;67.70;;;;;;6139693;23;20012;-90
2021/05/20 07:08:28;;;;;;;3.47;1.10;;;22.70;63.10;;;;;;6161775;23;19900;-89
2021/05/20 07:11:13;;;;;;;1.65;1.20;;;22.90;63.10;;;;;;6138371;23;20009;-87
2021/05/20 07:20:17;;;;;;;4.53;1.33;;;23.80;60.20;;;;;;6051497;23;19995;-91
2021/05/20 07:26:21;;;;;;;2.85;1.45;;;23.70;59.80;;;;;;5969977;23;20019;-89
2021/05/20 07:28:55;;;;;;;3.47;1.00;;;23.80;59.20;;;;;;6128086;23;20041;-87
2021/05/20 07:31:21;;;;;;;0.70;0.70;;;24.00;58.70;;;;;;6141020;23;20127;-88
2021/05/20 07:33:48;;;;;;;0.77;0.77;;;24.00;58.30;;;;;;6132689;23;20065;-89
2021/05/20 07:36:18;;;;;;;0.88;0.80;;;24.30;58.40;;;;;;6139560;23;20002;-89
2021/05/20 07:38:59;;;;;;;3.50;0.93;;;24.70;57.00;;;;;;6163749;23;20009;-91
2021/05/20 07:41:27;;;;;;;1.38;0.85;;;24.90;56.30;;;;;;6143016;23;20001;-88
2021/05/20 07:43:56;;;;;;;1.38;0.60;;;25.30;54.80;;;;;;6134513;23;20040;-89
2021/05/20 07:46:30;;;;;;;2.75;0.77;;;25.50;55.60;;;;;;6139859;23;20099;-86
2021/05/20 07:48:56;;;;;;;0.77;0.70;;;25.80;56.20;;;;;;6141473;23;20010;-86
2021/05/20 07:51:22;;;;;;;2.22;0.60;;;25.70;53.50;;;;;;6164751;23;20057;-87
2021/05/20 07:53:53;;;;;;;2.30;0.82;;;25.70;54.30;;;;;;6142427;23;20415;-89
2021/05/20 07:56:33;;;;;;;2.33;0.70;;;26.00;54.80;;;;;;6138271;23;20018;-90
2021/05/20 07:59:22;;;;;;;0.85;0.80;;;26.00;53.10;;;;;;6140674;23;20002;-88
2021/05/20 08:04:44;;;;;;;1.50;0.65;;;25.80;52.80;;;;;;6142548;23;20087;-89
2021/05/20 08:07:42;;;;;;;1.15;0.75;;;25.50;52.00;;;;;;6135888;23;20024;-91
2021/05/20 08:12:44;;;;;;;4.60;0.90;;;25.50;52.40;;;;;;6164054;23;20009;-88
2021/05/20 08:15:39;;;;;;;;;;;;;;;;;;;;;
2021/05/20 08:18:14;;;;;;;1.05;0.70;;;25.30;51.90;;;;;;6165665;23;19997;-87
2021/05/20 08:21:05;;;;;;;1.30;0.70;;;25.30;51.00;;;;;;6137919;23;20014;-92
2021/05/20 08:23:39;;;;;;;1.08;0.77;;;25.40;51.60;;;;;;6142182;23;20017;-88
2021/05/20 08:26:35;;;;;;;1.65;0.73;;;25.50;50.50;;;;;;6142625;23;20010;-91
2021/05/20 08:29:18;;;;;;;1.15;0.90;;;25.10;50.60;;;;;;6143160;23;20015;-91
2021/05/20 08:31:49;;;;;;;;;;;24.90;51.10;;;;;;6143399;23;20067;-89
2021/05/20 08:34:20;;;;;;;1.40;0.60;;;24.70;51.50;;;;;;6140808;23;19924;-90
2021/05/20 08:36:50;;;;;;;3.40;0.90;;;24.60;51.30;;;;;;6139931;23;20024;-90
2021/05/20 08:39:21;;;;;;;1.25;0.85;;;24.40;50.90;;;;;;6136695;23;20076;-89
2021/05/20 08:42:11;;;;;;;0.93;0.75;;;24.40;51.30;;;;;;6138396;23;20002;-87
2021/05/20 08:44:42;;;;;;;1.90;1.02;;;24.70;51.70;;;;;;6159312;23;20009;-88
2021/05/20 08:47:14;;;;;;;2.15;0.90;;;25.40;52.70;;;;;;6137865;23;20001;-88
2021/05/20 08:49:48;;;;;;;0.65;0.65;;;26.50;48.90;;;;;;6166055;23;20006;-86
2021/05/20 08:52:20;;;;;;;0.90;0.60;;;27.10;49.70;;;;;;6138543;23;20071;-87
2021/05/20 08:54:50;;;;;;;0.60;0.60;;;27.70;48.50;;;;;;6137458;23;20029;-87
2021/05/20 08:57:26;;;;;;;0.88;0.73;;;27.50;47.20;;;;;;6140945;23;20041;-89
2021/05/20 09:00:42;;;;;;;2.45;0.68;;;26.90;46.80;;;;;;6143683;23;20016;-89
2021/05/20 09:03:18;;;;;;;0.80;0.80;;;26.80;49.00;;;;;;6094620;23;20061;-87
2021/05/20 09:06:05;;;;;;;0.93;0.70;;;27.20;46.80;;;;;;6137927;23;20009;-89
2021/05/20 09:08:46;;;;;;;1.20;0.70;;;27.40;45.80;;;;;;6137161;23;20008;-90
2021/05/20 09:14:43;;;;;;;3.22;0.60;;;27.00;45.90;;;;;;6015273;23;20019;-88
2021/05/20 09:17:42;;;;;;;;;;;;;;;;;;;;;
2021/05/20 09:20:15;;;;;;;0.70;0.70;;;26.80;46.30;;;;;;6010342;23;20039;-89
2021/05/20 09:23:17;;;;;;;3.33;0.70;;;26.40;47.30;;;;;;5991304;23;20019;-92
2021/05/20 09:25:46;;;;;;;1.10;0.70;;;26.00;47.50;;;;;;6041203;23;20009;-90
2021/05/20 09:28:32;;;;;;;1.20;0.77;;;25.40;47.80;;;;;;6135128;23;20088;-89
2021/05/20 09:31:39;;;;;;;1.63;0.90;;;24.90;47.80;;;;;;6130618;23;20009;-91
2021/05/20 09:34:32;;;;;;;1.08;0.75;;;24.60;48.60;;;;;;6132759;23;20022;-90
2021/05/20 09:37:10;;;;;;;2.55;0.73;;;24.40;49.10;;;;;;6128211;23;20388;-91
2021/05/20 09:39:57;;;;;;;2.35;0.88;;;24.70;49.90;;;;;;6136967;23;20071;-90
2021/05/20 09:42:24;;;;;;;0.73;0.60;;;25.20;49.00;;;;;;6167236;23;20117;-89
2021/05/20 09:44:57;;;;;;;2.90;0.80;;;25.50;48.30;;;;;;6141589;23;20073;-87
2021/05/20 09:47:48;;;;;;;;;;;;;;;;;;;;;
2021/05/20 09:50:29;;;;;;;9.75;1.10;;;24.90;48.10;;;;;;6160113;23;20025;-91
2021/05/20 09:53:19;;;;;;;4.25;1.20;;;24.80;51.20;;;;;;6133869;23;20061;-90
2021/05/20 09:56:04;;;;;;;2.05;0.93;;;25.50;51.00;;;;;;6138988;23;20009;-90
2021/05/20 09:58:31;;;;;;;;;;;26.00;49.40;;;;;;6138894;23;20070;-87
2021/05/20 10:01:40;;;;;;;;;;;;;;;;;;;;;
2021/05/20 10:04:32;;;;;;;2.40;0.73;;;25.90;48.40;;;;;;6163350;23;20156;-90
2021/05/20 10:07:46;;;;;;;2.88;0.80;;;26.80;48.90;;;;;;6141224;23;20021;-92
2021/05/20 10:11:19;;;;;;;4.17;0.70;;;27.40;46.70;;;;;;6097146;23;20013;-92
2021/05/20 10:14:11;;;;;;;3.60;1.52;;;27.00;45.40;;;;;;6054763;23;20324;-88
2021/05/20 10:17:19;;;;;;;;;;;;;;;;;;;;;
2021/05/20 10:20:01;;;;;;;3.45;1.70;;;27.00;46.90;;;;;;6154347;23;20029;-87
2021/05/20 10:26:10;;;;;;;4.22;2.00;;;28.60;46.60;;;;;;6101895;23;20003;-90
2021/05/20 10:28:44;;;;;;;2.28;2.08;;;29.50;46.10;;;;;;6134111;23;20013;-87
2021/05/20 10:31:20;;;;;;;5.53;2.15;;;29.60;43.80;;;;;;6138427;23;20013;-86
2021/05/20 10:33:47;;;;;;;1.77;1.67;;;29.30;44.00;;;;;;6140023;23;20018;-86
2021/05/20 10:36:31;;;;;;;2.45;1.60;;;29.30;44.10;;;;;;6137234;23;20380;-92
2021/05/20 10:39:20;;;;;;;0.90;0.90;;;29.10;43.30;;;;;;6138157;23;20042;-91
2021/05/20 10:41:46;;;;;;;0.90;0.75;;;29.00;43.80;;;;;;6140587;23;20001;-89
2021/05/20 10:44:17;;;;;;;0.95;0.60;;;28.90;43.50;;;;;;6139737;23;20089;-88
2021/05/20 10:49:56;;;;;;;2.47;0.73;;;28.40;43.10;;;;;;6165615;23;20006;-89
2021/05/20 10:52:47;;;;;;;1.05;0.65;;;28.00;43.40;;;;;;6137427;23;20033;-89
2021/05/20 10:55:18;;;;;;;1.40;0.90;;;27.60;43.10;;;;;;6172462;23;20037;-89
2021/05/20 10:58:01;;;;;;;1.38;0.80;;;27.80;45.20;;;;;;6139707;23;20009;-87
2021/05/20 11:00:45;;;;;;;0.77;0.73;;;27.80;43.70;;;;;;6137429;23;20089;-90
2021/05/20 11:03:14;;;;;;;0.82;0.82;;;27.40;45.00;;;;;;6137040;23;20006;-87
2021/05/20 11:05:47;;;;;;;1.58;1.00;;;27.00;44.20;;;;;;6140349;23;20009;-91
2021/05/20 11:09:00;;;;;;;0.63;0.60;;;26.90;44.40;;;;;;6138427;23;20009;-90
2021/05/20 11:11:44;;;;;;;1.70;0.80;;;27.40;46.30;;;;;;6136125;23;20046;-89
2021/05/20 11:14:17;;;;;;;1.95;0.80;;;28.40;45.60;;;;;;6131979;23;20026;-90
2021/05/20 11:17:16;;;;;;;;;;;29.00;44.80;;;;;;6140272;23;20476;-89
2021/05/20 11:19:47;;;;;;;4.32;0.80;;;29.50;42.90;;;;;;6140443;23;19912;-90
2021/05/20 11:22:34;;;;;;;;;;;;;;;;;;;;;
2021/05/20 11:25:20;;;;;;;1.02;0.60;;;29.00;42.90;;;;;;6169551;23;20033;-91
2021/05/20 11:28:06;;;;;;;;;;;;;;;;;;;;;
2021/05/20 11:30:34;;;;;;;1.95;0.80;;;28.30;44.50;;;;;;6166211;23;20103;-88
2021/05/20 11:33:03;;;;;;;0.55;0.55;;;28.90;44.00;;;;;;6138557;23;20040;-89
2021/05/20 11:36:29;;;;;;;2.25;0.68;;;29.20;43.60;;;;;;6136645;23;20363;-89
2021/05/20 11:38:32;;;;;;;1.85;0.63;;;29.30;42.80;;;;;;6137339;23;20069;-89
2021/05/20 11:41:12;;;;;;;0.73;0.70;;;28.90;42.60;;;;;;6135050;23;20108;-92
2021/05/20 11:44:06;;;;;;;0.70;0.70;;;28.30;42.90;;;;;;6133524;23;20447;-89
2021/05/20 11:46:33;;;;;;;3.25;0.57;;;28.20;43.90;;;;;;6102946;23;20480;-89
2021/05/20 11:49:40;;;;;;;1.42;0.80;;;28.50;43.80;;;;;;6073602;23;20010;-89
2021/05/20 11:52:13;;;;;;;0.80;0.80;;;28.70;42.80;;;;;;6042216;23;20013;-90
2021/05/20 11:54:46;;;;;;;0.75;0.60;;;28.50;42.70;;;;;;6061115;23;20440;-89
2021/05/20 11:57:18;;;;;;;0.70;0.70;;;28.10;42.20;;;;;;6072234;23;20500;-88
2021/05/20 11:59:50;;;;;;;1.13;0.80;;;27.80;42.90;;;;;;6072584;23;20312;-90
2021/05/20 12:02:27;;;;;;;2.00;0.63;;;28.20;44.00;;;;;;6072611;23;20010;-88
2021/05/20 12:05:08;;;;;;;0.80;0.70;;;28.90;42.40;;;;;;6074040;23;20102;-88
2021/05/20 12:07:37;;;;;;;3.03;0.63;;;29.10;40.70;;;;;;6074079;23;20053;-89
2021/05/20 12:10:13;;;;;;;1.13;0.65;;;29.10;41.60;;;;;;6085743;23;20017;-89
2021/05/20 12:12:42;;;;;;;2.65;0.88;;;29.30;42.00;;;;;;6132785;23;20132;-88
2021/05/20 12:15:18;;;;;;;0.60;0.60;;;29.30;41.20;;;;;;6134517;23;20018;-90
2021/05/20 12:17:47;;;;;;;0.60;0.60;;;28.60;40.90;;;;;;6142994;23;20005;-92
2021/05/20 12:20:16;;;;;;;0.55;0.55;;;27.90;41.70;;;;;;6174281;23;20002;-93
2021/05/20 12:22:43;;;;;;;0.63;0.63;;;27.30;42.20;;;;;;6172565;23;20440;-89
2021/05/20 12:25:16;;;;;;;1.08;0.90;;;26.70;42.90;;;;;;6141292;23;20017;-90
2021/05/20 12:27:50;;;;;;;2.15;0.90;;;26.40;43.60;;;;;;6136880;23;20084;-91
2021/05/20 12:30:36;;;;;;;1.05;0.90;;;26.40;44.50;;;;;;6140189;23;20338;-92
2021/05/20 12:33:03;;;;;;;2.45;0.80;;;26.90;44.90;;;;;;6131932;23;20515;-93
2021/05/20 12:35:33;;;;;;;1.08;0.90;;;27.40;44.60;;;;;;6154649;23;20371;-87
2021/05/20 12:38:12;;;;;;;1.42;1.13;;;28.00;44.70;;;;;;6148205;23;20014;-94
2021/05/20 12:40:41;;;;;;;1.60;1.50;;;28.60;43.70;;;;;;6159454;23;20005;-93
2021/05/20 12:43:22;;;;;;;2.20;1.50;;;28.70;42.40;;;;;;6140206;23;20010;-92
2021/05/20 12:46:28;;;;;;;1.63;1.05;;;28.60;43.10;;;;;;6145579;23;20097;-90
2021/05/20 12:49:00;;;;;;;2.35;1.00;;;29.00;43.30;;;;;;6024272;23;20035;-89
2021/05/20 12:51:26;;;;;;;0.90;0.90;;;29.80;42.20;;;;;;6032604;23;20047;-88
2021/05/20 12:54:33;;;;;;;1.10;1.10;;;30.20;42.10;;;;;;6035118;23;20019;-91
2021/05/20 12:58:03;;;;;;;1.20;1.10;;;30.20;41.40;;;;;;6107454;23;20004;-93
2021/05/20 13:00:53;;;;;;;0.80;0.80;;;29.80;41.60;;;;;;6183051;23;20005;-93
2021/05/20 13:03:24;;;;;;;0.98;0.88;;;29.20;42.30;;;;;;6189229;23;20016;-91
2021/05/20 13:05:52;;;;;;;1.10;1.00;;;28.70;42.70;;;;;;6189012;23;20009;-92
2021/05/20 13:08:29;;;;;;;1.30;0.98;;;28.40;43.20;;;;;;6169253;23;20081;-91
2021/05/20 13:10:56;;;;;;;1.63;0.90;;;28.50;43.50;;;;;;6202640;23;20080;-91
2021/05/20 13:13:39;;;;;;;1.42;1.00;;;28.70;43.10;;;;;;6207624;23;20028;-90
2021/05/20 13:16:36;;;;;;;1.20;1.10;;;28.70;42.60;;;;;;6188825;23;20013;-90
2021/05/20 13:19:42;;;;;;;1.55;0.80;;;28.30;43.00;;;;;;6189198;23;20029;-89
2021/05/20 13:22:29;;;;;;;0.82;0.80;;;28.00;43.40;;;;;;6185676;23;20016;-90
2021/05/20 13:25:28;;;;;;;1.20;1.10;;;27.70;42.50;;;;;;6188895;23;20005;-94
2021/05/20 13:27:54;;;;;;;1.02;0.82;;;27.30;42.70;;;;;;6165472;23;20509;-90
2021/05/20 13:32:58;;;;;;;1.50;0.73;;;26.90;43.30;;;;;;6197321;23;20084;-87
2021/05/20 13:35:25;;;;;;;0.98;0.88;;;26.60;43.50;;;;;;6191729;23;20021;-87
2021/05/20 13:37:57;;;;;;;0.75;0.70;;;26.40;43.50;;;;;;6197247;23;20363;-92
2021/05/20 13:40:24;;;;;;;0.80;0.80;;;26.30;43.80;;;;;;6192485;23;20017;-93
2021/05/20 13:42:52;;;;;;;1.00;0.90;;;26.10;44.00;;;;;;6170901;23;19988;-91
2021/05/20 13:45:20;;;;;;;0.85;0.85;;;26.00;44.30;;;;;;6194090;23;20076;-90
2021/05/20 13:47:45;;;;;;;1.77;0.80;;;25.90;44.30;;;;;;6190209;23;19997;-86
2021/05/20 13:50:12;;;;;;;0.85;0.80;;;25.70;44.40;;;;;;6184355;23;20069;-90
2021/05/20 13:52:47;;;;;;;0.98;0.70;;;25.50;44.60;;;;;;6184984;23;20005;-91
2021/05/20 13:55:15;;;;;;;;;;;25.20;44.70;;;;;;6184181;23;20013;-90
2021/05/20 13:57:41;;;;;;;1.85;0.77;;;24.80;45.30;;;;;;6167896;23;20114;-89
2021/05/20 14:00:20;;;;;;;0.93;0.80;;;24.50;45.80;;;;;;6184469;23;20020;-90
2021/05/20 14:02:58;;;;;;;2.22;0.82;;;24.20;46.40;;;;;;6182423;23;21394;-91
2021/05/20 14:05:24;;;;;;;3.72;1.00;;;23.90;46.90;;;;;;6185499;23;20009;-90
2021/05/20 14:07:50;;;;;;;1.65;1.13;;;23.70;47.40;;;;;;6165963;23;20005;-90
2021/05/20 14:10:16;;;;;;;4.90;1.30;;;23.60;48.10;;;;;;6192220;23;20356;-92
2021/05/20 14:12:54;;;;;;;2.38;1.10;;;23.30;48.60;;;;;;6194659;23;20083;-91
2021/05/20 14:15:20;;;;;;;3.30;1.10;;;23.00;49.30;;;;;;6204538;23;20761;-92
2021/05/20 14:18:08;;;;;;;;;;;;;;;;;;;;;